Time;durP1;ratioP1;P1;durP2;ratioP2;P2;SDS_P1;SDS_P2;PMS_P1;PMS_P2;Temp;Humidity;BMP_temperature;BMP_pressure;BME280_temperature;BME280_humidity;BME280_pressure;Samples;Min_cycle;Max_cycle;Signal;HPM_P1;HPM_P2
2022/03/11 00:00:05;;;;;;;12.82;7.38;;;;;;;-14.19;62.18;97849.44;6322637;28;20050;-63
2022/03/11 00:03:10;;;;;;;17.88;7.35;;;;;;;-14.19;62.04;97857.00;6323884;28;20036;-64
2022/03/11 00:06:15;;;;;;;11.70;6.38;;;;;;;-14.20;61.95;97845.19;6323610;28;20043;-64
2022/03/11 00:09:19;;;;;;;9.52;5.00;;;;;;;-14.08;62.17;97842.34;6323136;28;20048;-64
2022/03/11 00:12:24;;;;;;;18.67;7.82;;;;;;;-14.15;61.95;97846.28;6323229;28;20188;-62
2022/03/11 00:15:29;;;;;;;9.82;4.65;;;;;;;-14.26;62.21;97843.22;6323496;28;20452;-64
2022/03/11 00:18:34;;;;;;;21.83;8.63;;;;;;;-14.41;62.01;97842.50;6322863;28;20051;-63
2022/03/11 00:21:37;;;;;;;24.60;10.40;;;;;;;-14.37;62.26;97843.53;6321429;28;20109;-63
2022/03/11 00:24:41;;;;;;;19.20;9.68;;;;;;;-14.45;62.57;97854.94;6322885;28;20048;-63
2022/03/11 00:27:47;;;;;;;21.52;10.25;;;;;;;-14.47;62.26;97848.13;6321711;28;20430;-64
2022/03/11 00:30:52;;;;;;;22.27;10.88;;;;;;;-14.61;62.45;97849.16;6322805;28;20093;-63
2022/03/11 00:33:58;;;;;;;11.35;6.65;;;;;;;-14.61;62.57;97849.16;6322410;28;20154;-64
2022/03/11 00:37:02;;;;;;;13.45;5.75;;;;;;;-14.41;62.34;97846.69;6322420;28;20044;-64
2022/03/11 00:40:07;;;;;;;23.50;8.32;;;;;;;-14.47;61.73;97842.22;6322323;28;20174;-63
2022/03/11 00:43:13;;;;;;;17.13;10.23;;;;;;;-14.73;62.37;97846.91;6322339;28;20044;-63
2022/03/11 00:46:18;;;;;;;15.88;6.93;;;;;;;-14.84;62.70;97837.06;6321264;28;20416;-63
2022/03/11 00:49:23;;;;;;;10.70;5.82;;;;;;;-14.71;62.61;97831.84;6322177;28;20132;-63
2022/03/11 00:52:28;;;;;;;17.10;8.52;;;;;;;-14.71;62.43;97837.75;6322163;28;20434;-64
2022/03/11 00:55:33;;;;;;;13.35;6.22;;;;;;;-14.68;62.59;97837.03;6321780;28;20158;-64
2022/03/11 00:58:38;;;;;;;18.00;7.57;;;;;;;-14.90;62.92;97834.25;6322008;28;20044;-63
2022/03/11 01:01:41;;;;;;;17.00;6.82;;;;;;;-14.73;62.67;97824.16;6321905;28;20395;-63
2022/03/11 01:04:48;;;;;;;18.45;8.32;;;;;;;-14.91;62.57;97837.56;6321699;28;20063;-64
2022/03/11 01:07:53;;;;;;;24.17;8.20;;;;;;;-14.81;62.59;97837.22;6321822;28;20054;-63
2022/03/11 01:10:56;;;;;;;22.48;11.48;;;;;;;-14.94;62.64;97839.16;6321674;28;20047;-64
2022/03/11 01:14:02;;;;;;;15.68;8.32;;;;;;;-15.03;63.12;97843.75;6320086;28;20152;-64
2022/03/11 01:17:06;;;;;;;16.65;6.65;;;;;;;-14.98;63.40;97832.19;6320392;28;20395;-63
2022/03/11 01:20:11;;;;;;;10.80;6.43;;;;;;;-15.01;63.36;97831.19;6320141;28;20070;-64
2022/03/11 01:23:16;;;;;;;11.15;5.78;;;;;;;-14.86;62.73;97836.13;6320771;28;20442;-63
2022/03/11 01:26:20;;;;;;;12.85;7.18;;;;;;;-15.00;63.07;97833.81;6321393;28;20437;-63
2022/03/11 01:29:24;;;;;;;16.20;7.95;;;;;;;-15.03;63.29;97831.13;6321413;28;20035;-63
2022/03/11 01:32:29;;;;;;;14.60;6.57;;;;;;;-14.89;63.32;97841.03;6319907;28;20043;-64
2022/03/11 01:35:34;;;;;;;15.52;5.40;;;;;;;-14.96;63.13;97845.78;6321336;28;20044;-63
2022/03/11 01:38:40;;;;;;;10.10;5.03;;;;;;;-14.90;63.08;97841.81;6321514;28;20040;-64
2022/03/11 01:41:45;;;;;;;10.15;5.30;;;;;;;-15.04;63.31;97841.13;6321360;28;20044;-62
2022/03/11 01:44:49;;;;;;;11.80;6.90;;;;;;;-15.00;63.17;97843.91;6320039;28;20044;-63
2022/03/11 01:47:54;;;;;;;11.88;5.95;;;;;;;-15.04;63.27;97842.00;6320991;28;20036;-62
2022/03/11 01:50:58;;;;;;;14.40;7.28;;;;;;;-15.06;63.54;97843.56;6319526;28;20044;-63
2022/03/11 01:54:03;;;;;;;13.27;5.75;;;;;;;-14.97;63.48;97846.56;6321111;28;20040;-64
2022/03/11 01:57:07;;;;;;;12.15;5.55;;;;;;;-14.97;63.03;97853.28;6320890;28;20047;-62
2022/03/11 02:00:11;;;;;;;16.50;6.70;;;;;;;-15.13;63.28;97849.13;6320661;28;20396;-63
2022/03/11 02:03:15;;;;;;;9.90;5.13;;;;;;;-14.87;63.00;97841.97;6320106;28;20059;-63
2022/03/11 02:06:20;;;;;;;21.45;9.30;;;;;;;-14.88;62.70;97840.25;6320143;28;20047;-63
2022/03/11 02:09:25;;;;;;;17.08;7.18;;;;;;;-15.01;62.75;97847.19;6320611;28;20422;-62
2022/03/11 02:12:31;;;;;;;14.98;7.55;;;;;;;-15.09;62.74;97858.56;6320055;28;20040;-64
2022/03/11 02:15:35;;;;;;;7.75;5.20;;;;;;;-15.10;63.12;97855.97;6320534;28;20079;-64
2022/03/11 02:18:40;;;;;;;16.90;8.02;;;;;;;-15.11;63.36;97855.13;6322292;28;20061;-64
2022/03/11 02:21:47;;;;;;;12.77;7.25;;;;;;;-15.13;63.46;97849.13;6321788;28;20051;-64
2022/03/11 02:24:56;;;;;;;11.50;5.97;;;;;;;-15.01;62.87;97836.25;6327464;28;20044;-64
2022/03/11 02:28:01;;;;;;;19.25;9.50;;;;;;;-15.16;63.21;97841.41;6327086;28;20458;-63
2022/03/11 02:31:06;;;;;;;18.77;5.75;;;;;;;-15.04;63.28;97842.00;6328754;28;20035;-63
2022/03/11 02:34:11;;;;;;;22.60;11.07;;;;;;;-15.11;63.16;97845.03;6328883;28;20044;-64
2022/03/11 02:37:16;;;;;;;10.35;6.25;;;;;;;-15.12;63.25;97840.75;6327821;28;20514;-61
2022/03/11 02:40:20;;;;;;;19.05;7.47;;;;;;;-15.14;63.13;97849.91;6328867;28;20043;-62
2022/03/11 02:43:24;;;;;;;13.48;7.88;;;;;;;-15.07;63.25;97846.91;6327578;28;20048;-64
2022/03/11 02:46:28;;;;;;;13.45;8.10;;;;;;;-15.09;63.64;97847.59;6328277;28;20472;-63
2022/03/11 02:49:33;;;;;;;20.63;8.75;;;;;;;-15.07;63.30;97839.31;6328455;28;20077;-63
2022/03/11 02:52:38;;;;;;;16.80;8.45;;;;;;;-15.01;63.03;97832.06;6328901;28;20044;-63
2022/03/11 02:55:42;;;;;;;13.00;8.38;;;;;;;-15.01;63.46;97832.06;6329116;27;20442;-64
2022/03/11 02:58:46;;;;;;;16.80;6.38;;;;;;;-15.00;62.93;97825.34;6328182;28;20085;-64
2022/03/11 03:01:50;;;;;;;13.48;7.38;;;;;;;-14.94;62.97;97818.94;6326596;28;20055;-63
2022/03/11 03:04:54;;;;;;;14.90;9.13;;;;;;;-15.05;63.11;97815.03;6326591;28;20052;-64
2022/03/11 03:07:58;;;;;;;16.90;8.30;;;;;;;-15.03;63.38;97807.50;6326463;28;20648;-64
2022/03/11 03:11:01;;;;;;;16.67;7.25;;;;;;;-14.85;63.40;97822.72;6327804;28;20395;-64
2022/03/11 03:14:06;;;;;;;19.25;8.82;;;;;;;-14.76;63.14;97828.22;6327948;28;20039;-64
2022/03/11 03:17:11;;;;;;;17.77;8.52;;;;;;;-14.69;62.94;97827.69;6309467;28;20047;-63
2022/03/11 03:20:18;;;;;;;14.70;7.15;;;;;;;-14.53;63.08;97834.38;6328478;28;20040;-64
2022/03/11 03:23:26;;;;;;;18.42;8.10;;;;;;;-14.46;62.68;97828.78;6327989;28;20453;-64
2022/03/11 03:26:30;;;;;;;15.77;6.55;;;;;;;-14.49;62.92;97824.47;6327507;28;20449;-64
2022/03/11 03:29:33;;;;;;;14.45;6.55;;;;;;;-14.39;62.77;97829.94;6327799;28;20035;-64
2022/03/11 03:32:44;;;;;;;11.10;6.80;;;;;;;-14.26;62.16;97837.31;6327809;28;20036;-65
2022/03/11 03:35:48;;;;;;;17.05;8.25;;;;;;;-14.27;62.44;97825.44;6325084;28;20040;-64
2022/03/11 03:38:53;;;;;;;9.13;5.55;;;;;;;-14.10;62.14;97833.81;6324086;28;20047;-64
2022/03/11 03:41:57;;;;;;;17.75;7.75;;;;;;;-14.18;61.93;97830.06;6323870;28;20035;-64
2022/03/11 03:45:01;;;;;;;13.32;7.07;;;;;;;-14.02;62.03;97835.91;6323278;28;20068;-64
2022/03/11 03:48:07;;;;;;;16.38;9.20;;;;;;;-14.06;62.05;97845.81;6323686;28;20047;-64
2022/03/11 03:51:12;;;;;;;15.40;8.90;;;;;;;-14.00;62.40;97837.66;6323780;28;20441;-64
2022/03/11 03:54:18;;;;;;;22.60;8.20;;;;;;;-13.83;61.83;97840.16;6323224;28;20048;-63
2022/03/11 03:57:25;;;;;;;22.20;10.50;;;;;;;-13.78;61.53;97840.38;6323446;28;20040;-63
2022/03/11 04:00:29;;;;;;;38.80;14.07;;;;;;;-13.56;61.25;97844.69;6323413;28;20040;-64
2022/03/11 04:03:35;;;;;;;22.40;10.63;;;;;;;-13.45;61.34;97855.31;6323063;28;20120;-64
2022/03/11 04:06:42;;;;;;;23.42;10.80;;;;;;;-13.43;61.17;97851.19;6321516;28;20079;-63
2022/03/11 04:09:45;;;;;;;29.27;15.40;;;;;;;-13.34;60.82;97859.19;6322948;28;20036;-63
2022/03/11 04:12:50;;;;;;;38.47;17.73;;;;;;;-13.19;61.14;97856.41;6322994;28;20047;-64
2022/03/11 04:15:54;;;;;;;30.40;14.73;;;;;;;-12.83;60.52;97862.19;6322909;28;20044;-65
2022/03/11 04:18:59;;;;;;;24.20;11.32;;;;;;;-12.65;60.26;97862.09;6322547;28;20499;-63
2022/03/11 04:22:02;;;;;;;23.98;11.88;;;;;;;-12.61;60.17;97863.09;6322719;28;20157;-63
2022/03/11 04:25:05;;;;;;;32.57;15.07;;;;;;;-12.43;58.94;97874.81;6322805;28;20036;-64
2022/03/11 04:28:10;;;;;;;27.88;12.32;;;;;;;-12.47;59.37;97867.03;6322656;28;20038;-64
2022/03/11 04:31:13;;;;;;;26.98;12.90;;;;;;;-12.14;58.83;97881.88;6322704;28;20499;-64
2022/03/11 04:34:19;;;;;;;29.50;16.20;;;;;;;-12.07;58.77;97871.16;6321030;28;20052;-64
2022/03/11 04:37:23;;;;;;;32.83;15.82;;;;;;;-11.90;59.01;97877.75;6322382;28;20138;-64
2022/03/11 04:40:28;;;;;;;31.58;15.98;;;;;;;-11.68;58.18;97873.50;6322213;28;20044;-63
2022/03/11 04:43:34;;;;;;;28.08;14.68;;;;;;;-11.57;57.58;97869.69;6322052;28;20036;-63
2022/03/11 04:46:39;;;;;;;31.98;15.05;;;;;;;-11.58;57.60;97878.09;6321539;28;20047;-63
2022/03/11 04:49:43;;;;;;;28.75;12.35;;;;;;;-11.42;57.76;97882.06;6322162;28;20521;-63
2022/03/11 04:52:48;;;;;;;35.53;15.35;;;;;;;-11.35;57.30;97882.38;6321929;28;20036;-66
2022/03/11 04:55:54;;;;;;;43.95;17.85;;;;;;;-11.44;56.81;97884.53;6321775;28;20445;-63
2022/03/11 04:58:58;;;;;;;38.00;14.65;;;;;;;-11.40;57.01;97872.84;6321847;28;20067;-63
2022/03/11 05:02:01;;;;;;;;;;;;;;;-11.10;56.67;97873.06;6322096;28;20126;-65
2022/03/11 05:05:05;;;;;;;24.25;12.10;;;;;;;-10.97;56.84;97880.31;6321854;28;19915;-64
2022/03/11 05:08:09;;;;;;;;;;;;;;;-10.73;56.67;97876.91;6321975;28;20516;-63
2022/03/11 05:11:15;;;;;;;19.10;8.98;;;;;;;-10.56;56.37;97875.78;6321780;28;19915;-64
2022/03/11 05:14:20;;;;;;;30.77;13.85;;;;;;;-10.42;55.67;97863.53;6321541;28;20063;-63
2022/03/11 05:17:25;;;;;;;28.25;13.93;;;;;;;-10.47;55.78;97858.31;6321333;28;20048;-63
2022/03/11 05:20:28;;;;;;;;;;;;;;;-10.23;55.59;97859.88;6320327;28;20135;-64
2022/03/11 05:23:33;;;;;;;21.55;9.32;;;;;;;-10.10;55.41;97872.19;6321225;28;19920;-64
2022/03/11 05:26:38;;;;;;;23.77;11.32;;;;;;;-10.06;55.37;97870.59;6320148;28;20144;-63
2022/03/11 05:29:41;;;;;;;;;;;;;;;-9.69;55.02;97866.66;6321564;28;20184;-62
2022/03/11 05:32:47;;;;;;;16.52;7.45;;;;;;;-9.64;53.93;97871.06;6321006;28;19953;-63
2022/03/11 05:35:53;;;;;;;13.75;6.55;;;;;;;-9.58;54.33;97866.16;6321061;28;20044;-63
2022/03/11 05:38:58;;;;;;;19.27;9.55;;;;;;;-9.64;54.46;97868.50;6321006;28;20157;-63
2022/03/11 05:42:00;;;;;;;;;;;;;;;-9.48;54.47;97864.75;6320065;28;20039;-63
2022/03/11 05:45:03;;;;;;;26.83;12.27;;;;;;;-9.54;53.88;97857.78;6319715;28;19927;-63
2022/03/11 05:48:07;;;;;;;;;;;;;;;-9.57;53.84;97860.22;6321390;28;20091;-64
2022/03/11 05:51:12;;;;;;;17.67;9.68;;;;;;;-9.50;53.50;97857.06;6320819;28;19916;-64
2022/03/11 05:54:14;;;;;;;;;;;;;;;-9.34;53.60;97858.38;6319059;28;20056;-64
2022/03/11 05:57:19;;;;;;;25.00;10.35;;;;;;;-9.29;53.37;97861.03;6321203;28;19953;-63
2022/03/11 06:00:22;;;;;;;;;;;;;;;-9.00;53.01;97855.88;6320930;28;20052;-64
2022/03/11 06:03:26;;;;;;;26.92;11.23;;;;;;;-8.99;52.67;97860.19;6319012;28;19949;-65
2022/03/11 06:06:32;;;;;;;25.08;11.68;;;;;;;-8.81;52.64;97860.66;6320527;28;20450;-63
2022/03/11 06:09:36;;;;;;;33.17;13.50;;;;;;;-8.64;52.48;97856.88;6320783;28;20032;-63
2022/03/11 06:12:38;;;;;;;;;;;;;;;-8.11;51.18;97855.59;6319503;28;20066;-63
2022/03/11 06:15:45;;;;;;;20.25;8.27;;;;;;;-7.86;51.25;97854.50;6320436;28;19920;-62
2022/03/11 06:18:49;;;;;;;32.40;11.57;;;;;;;-7.91;51.13;97851.81;6320441;28;20036;-64
2022/03/11 06:21:51;;;;;;;;;;;;;;;-7.69;50.09;97848.94;6319131;28;20139;-64
2022/03/11 06:24:58;;;;;;;18.88;9.93;;;;;;;-7.55;50.79;97856.91;6318980;28;19919;-63
2022/03/11 06:28:03;;;;;;;37.30;13.13;;;;;;;-7.40;49.14;97853.81;6320533;28;20460;-63
2022/03/11 06:31:11;;;;;;;33.17;13.68;;;;;;;-7.14;48.21;97863.72;6319846;28;20071;-63
2022/03/11 06:34:16;;;;;;;32.28;12.00;;;;;;;-6.91;48.98;97859.91;6320175;28;20071;-63
2022/03/11 06:37:21;;;;;;;20.90;9.57;;;;;;;-6.36;47.89;97860.09;6320166;28;20040;-63
2022/03/11 06:40:26;;;;;;;25.48;11.18;;;;;;;-5.74;47.22;97851.66;6319960;28;20048;-63
2022/03/11 06:43:30;;;;;;;30.30;11.68;;;;;;;-5.09;45.92;97856.84;6320610;28;20040;-63
2022/03/11 06:46:35;;;;;;;25.75;11.10;;;;;;;-4.62;45.67;97842.81;6319748;28;20055;-63
2022/03/11 06:49:39;;;;;;;32.45;11.60;;;;;;;-4.16;44.97;97836.44;6319898;28;20040;-64
2022/03/11 06:52:44;;;;;;;28.98;12.30;;;;;;;-3.95;44.24;97838.28;6318555;28;20048;-63
2022/03/11 06:55:47;;;;;;;22.90;10.57;;;;;;;-3.54;43.67;97836.84;6318731;28;20070;-64
2022/03/11 06:58:53;;;;;;;17.52;9.35;;;;;;;-3.24;42.47;97826.75;6319714;28;20043;-64
2022/03/11 07:01:58;;;;;;;20.10;8.80;;;;;;;-3.25;42.22;97825.03;6319959;28;20066;-65
2022/03/11 07:05:04;;;;;;;19.55;9.70;;;;;;;-3.44;42.12;97820.63;6319964;28;20055;-64
2022/03/11 07:08:10;;;;;;;26.75;11.25;;;;;;;-3.61;42.10;97836.81;6319664;28;20044;-65
2022/03/11 07:11:14;;;;;;;19.02;9.68;;;;;;;-3.43;41.78;97824.91;6322877;28;20039;-64
2022/03/11 07:14:19;;;;;;;13.88;6.88;;;;;;;-3.24;41.16;97826.75;6324873;28;20043;-63
2022/03/11 07:17:23;;;;;;;17.90;8.02;;;;;;;-2.97;40.62;97831.16;6324478;28;20048;-64
2022/03/11 07:20:28;;;;;;;13.15;6.22;;;;;;;-2.25;39.81;97825.31;6324268;28;20421;-63
2022/03/11 07:23:33;;;;;;;16.98;6.40;;;;;;;-2.20;39.57;97830.50;6324392;28;20040;-63
2022/03/11 07:26:39;;;;;;;11.57;6.38;;;;;;;-2.33;38.66;97820.16;6324459;28;20044;-63
2022/03/11 07:29:44;;;;;;;15.68;6.68;;;;;;;-2.69;38.95;97820.06;6324292;28;20040;-63
2022/03/11 07:32:50;;;;;;;12.63;6.05;;;;;;;-2.63;39.17;97815.81;6322589;28;20051;-63
2022/03/11 07:35:54;;;;;;;15.45;6.93;;;;;;;-2.57;38.71;97809.81;6323885;28;20525;-63
2022/03/11 07:38:58;;;;;;;12.13;6.93;;;;;;;-2.43;38.43;97813.28;6322313;28;20075;-64
2022/03/11 07:42:02;;;;;;;17.30;8.13;;;;;;;-2.05;37.17;97815.03;6322048;28;20044;-63
2022/03/11 07:45:07;;;;;;;16.42;7.50;;;;;;;-1.91;36.75;97815.88;6323569;28;20612;-64
2022/03/11 07:48:12;;;;;;;12.40;6.75;;;;;;;-2.13;37.27;97806.41;6323422;28;20036;-64
2022/03/11 07:51:17;;;;;;;14.38;7.95;;;;;;;-2.31;36.60;97812.44;6323392;28;20521;-64
2022/03/11 07:54:23;;;;;;;14.50;7.43;;;;;;;-2.73;37.01;97809.75;6322973;28;20222;-64
2022/03/11 07:57:32;;;;;;;11.30;6.03;;;;;;;-2.98;37.83;97802.81;6322788;28;20507;-64
2022/03/11 08:00:38;;;;;;;15.52;6.40;;;;;;;-2.90;37.30;97806.28;6321931;28;20044;-64
2022/03/11 08:03:45;;;;;;;15.15;7.53;;;;;;;-3.03;37.25;97796.78;6322114;28;20040;-64
2022/03/11 08:06:50;;;;;;;18.17;8.77;;;;;;;-3.40;37.44;97794.94;6322746;28;20043;-64
2022/03/11 08:09:58;;;;;;;16.15;7.85;;;;;;;-3.87;37.26;97797.22;6322839;28;20040;-63
2022/03/11 08:13:03;;;;;;;21.08;9.23;;;;;;;-4.23;38.19;97801.22;6322770;28;20043;-63
2022/03/11 08:16:08;;;;;;;14.77;7.38;;;;;;;-4.48;38.38;97801.84;6322746;28;20438;-64
2022/03/11 08:19:13;;;;;;;13.13;7.40;;;;;;;-4.41;38.44;97804.50;6321507;28;20051;-63
2022/03/11 08:22:18;;;;;;;13.27;6.43;;;;;;;-4.37;38.67;97805.38;6320596;28;20453;-64
2022/03/11 08:25:26;;;;;;;13.88;6.57;;;;;;;-4.27;37.89;97796.94;6322821;28;20035;-63
2022/03/11 08:28:31;;;;;;;11.48;7.13;;;;;;;-4.40;38.27;97788.22;6322687;28;20036;-64
2022/03/11 08:31:37;;;;;;;15.98;9.13;;;;;;;-4.62;38.74;97794.88;6321465;28;20442;-63
2022/03/11 08:34:40;;;;;;;18.77;9.35;;;;;;;-4.34;38.29;97783.16;6321566;28;20036;-64
2022/03/11 08:37:45;;;;;;;16.05;9.50;;;;;;;-4.30;37.73;97766.91;6322426;28;20086;-63
2022/03/11 08:40:50;;;;;;;18.38;9.63;;;;;;;-3.95;37.74;97779.16;6322302;28;20077;-63
2022/03/11 08:43:54;;;;;;;19.45;8.43;;;;;;;-4.01;37.77;97773.13;6321089;28;20044;-63
2022/03/11 08:46:59;;;;;;;15.45;8.18;;;;;;;-4.01;37.54;97774.00;6320893;28;20120;-63
2022/03/11 08:50:03;;;;;;;8.38;5.40;;;;;;;-4.09;37.70;97773.91;6321126;28;20047;-62
2022/03/11 08:53:08;;;;;;;14.45;7.15;;;;;;;-4.10;37.84;97759.38;6320986;28;20040;-63
2022/03/11 08:56:15;;;;;;;15.50;7.10;;;;;;;-4.25;37.93;97758.38;6321850;28;20048;-63
2022/03/11 08:59:21;;;;;;;19.42;8.82;;;;;;;-4.49;38.24;97748.78;6321906;28;20040;-64
2022/03/11 09:02:26;;;;;;;17.90;9.02;;;;;;;-4.48;37.76;97750.47;6321786;28;20102;-64
2022/03/11 09:05:30;;;;;;;16.23;7.57;;;;;;;-4.45;38.30;97745.38;6321767;28;20039;-63
2022/03/11 09:08:34;;;;;;;17.35;10.02;;;;;;;-4.72;38.32;97746.88;6321856;28;20040;-64
2022/03/11 09:11:39;;;;;;;19.77;8.65;;;;;;;-5.03;39.27;97735.44;6321657;28;20048;-63
2022/03/11 09:14:43;;;;;;;11.50;7.07;;;;;;;-5.23;39.53;97730.09;6321428;28;20040;-63
2022/03/11 09:17:48;;;;;;;21.17;9.30;;;;;;;-5.39;39.21;97735.88;6321699;28;20440;-63
2022/03/11 09:20:55;;;;;;;23.17;10.82;;;;;;;-5.51;39.91;97736.59;6321053;28;20059;-64
2022/03/11 09:23:59;;;;;;;16.98;8.35;;;;;;;-5.48;40.37;97742.63;6321303;28;20616;-64
2022/03/11 09:27:04;;;;;;;18.45;8.68;;;;;;;-5.63;40.77;97742.44;6321528;28;20036;-63
2022/03/11 09:30:08;;;;;;;14.48;8.18;;;;;;;-5.90;41.04;97736.09;6319984;28;20138;-65
2022/03/11 09:33:13;;;;;;;12.25;6.00;;;;;;;-6.06;41.13;97728.19;6320027;28;20533;-63
2022/03/11 09:36:19;;;;;;;11.13;5.20;;;;;;;-6.25;41.44;97730.50;6321112;28;20043;-64
2022/03/11 09:39:24;;;;;;;12.13;6.15;;;;;;;-6.48;41.85;97722.47;6319730;28;20043;-63
2022/03/11 09:42:30;;;;;;;17.23;8.68;;;;;;;-6.61;42.72;97725.69;6321181;28;20035;-64
2022/03/11 09:45:36;;;;;;;16.42;7.18;;;;;;;-6.66;42.02;97732.41;6319940;28;20511;-63
2022/03/11 09:48:43;;;;;;;13.85;6.80;;;;;;;-6.65;42.76;97719.66;6320741;28;20115;-63
2022/03/11 09:51:49;;;;;;;18.08;6.88;;;;;;;-6.81;42.20;97712.56;6320824;28;20040;-63
2022/03/11 09:54:54;;;;;;;13.38;6.32;;;;;;;-6.93;42.74;97723.44;6320870;28;20044;-63
2022/03/11 09:57:58;;;;;;;7.32;5.13;;;;;;;-7.10;43.22;97717.16;6320700;28;20043;-64
2022/03/11 10:01:04;;;;;;;11.30;5.13;;;;;;;-7.33;43.43;97709.94;6319356;28;20507;-64
2022/03/11 10:04:10;;;;;;;10.23;6.05;;;;;;;-7.57;44.06;97701.78;6320476;28;20036;-64
2022/03/11 10:07:31;;;;;;;15.52;5.78;;;;;;;-7.54;44.32;97709.50;6320521;28;20044;-63
2022/03/11 10:10:35;;;;;;;16.00;6.38;;;;;;;-7.73;44.25;97716.84;6320284;28;20044;-64
2022/03/11 10:13:39;;;;;;;;;;;;;;;-7.49;43.96;97711.34;6320812;28;20044;-64
2022/03/11 10:16:48;;;;;;;9.57;5.93;;;;;;;-7.53;44.10;97708.66;6319405;28;19919;-64
2022/03/11 10:20:27;;;;;;;7.53;4.07;;;;;;;-7.71;44.67;97710.03;6319035;28;20165;-65
2022/03/11 10:23:50;;;;;;;13.85;6.07;;;;;;;-7.65;44.80;97714.41;6287789;28;20431;-64
2022/03/11 10:27:01;;;;;;;10.82;5.72;;;;;;;-7.61;44.77;97720.44;6320513;28;20051;-64
2022/03/11 10:30:17;;;;;;;11.45;6.20;;;;;;;-7.85;45.10;97713.16;6319138;28;20048;-64
2022/03/11 10:33:21;;;;;;;12.68;5.53;;;;;;;-7.80;44.91;97714.13;6320093;28;20044;-65
2022/03/11 10:36:29;;;;;;;;;;;;;;;-7.66;44.33;97722.06;6320747;28;20047;-65
2022/03/11 10:39:40;;;;;;;11.73;4.63;;;;;;;-7.82;45.83;97716.63;6320092;28;19919;-65
2022/03/11 10:42:45;;;;;;;7.38;3.83;;;;;;;-7.58;45.52;97707.75;6320103;28;20040;-64
2022/03/11 10:46:13;;;;;;;9.73;5.38;;;;;;;-7.42;45.16;97714.00;6323198;28;20170;-64
2022/03/11 10:49:26;;;;;;;11.27;5.13;;;;;;;-7.38;44.81;97714.09;6324884;28;20445;-64
2022/03/11 10:52:37;;;;;;;13.07;6.22;;;;;;;-7.23;44.85;97714.38;6324162;28;20043;-65
2022/03/11 10:56:05;;;;;;;13.27;6.20;;;;;;;-7.04;44.41;97709.59;6324908;28;20051;-64
2022/03/11 10:59:13;;;;;;;19.30;7.65;;;;;;;-7.11;45.36;97703.50;6323997;28;20077;-64
2022/03/11 11:02:20;;;;;;;17.77;8.65;;;;;;;-7.21;44.67;97704.19;6325086;28;20051;-63
2022/03/11 11:05:22;;;;;;;12.68;6.35;;;;;;;-7.55;45.74;97700.13;6324668;28;20038;-63
2022/03/11 11:08:42;;;;;;;12.65;4.95;;;;;;;-7.54;45.94;97701.84;6324649;28;20066;-65
2022/03/11 11:11:43;;;;;;;8.38;5.45;;;;;;;-7.64;46.20;97712.72;6324224;28;20074;-64
2022/03/11 11:14:46;;;;;;;9.98;5.10;;;;;;;-7.80;46.37;97704.75;6324286;28;20058;-64
2022/03/11 11:17:51;;;;;;;6.95;3.92;;;;;;;-7.94;46.58;97701.06;6324301;28;20064;-65
2022/03/11 11:20:56;;;;;;;7.97;4.50;;;;;;;-7.97;46.79;97701.84;6323537;28;20134;-64
2022/03/11 11:24:00;;;;;;;9.98;5.10;;;;;;;-7.97;47.25;97691.63;6324450;28;20036;-64
2022/03/11 11:27:02;;;;;;;8.60;4.43;;;;;;;-7.87;46.94;97692.66;6323743;28;20356;-64
2022/03/11 11:30:05;;;;;;;8.90;4.28;;;;;;;-8.05;48.03;97698.25;6323792;28;20051;-64
2022/03/11 11:33:10;;;;;;;7.68;4.70;;;;;;;-8.11;47.30;97697.28;6324006;28;20169;-64
2022/03/11 11:36:32;;;;;;;10.68;4.35;;;;;;;-8.03;47.53;97693.19;6323894;28;20043;-64
2022/03/11 11:39:47;;;;;;;11.05;5.38;;;;;;;-7.96;47.73;97695.03;6323618;28;20129;-65
2022/03/11 11:43:31;;;;;;;11.63;5.68;;;;;;;-8.02;47.58;97688.13;6323281;28;20525;-64
2022/03/11 11:46:37;;;;;;;11.75;5.53;;;;;;;-8.07;48.02;97688.84;6323616;28;20044;-63
2022/03/11 11:49:51;;;;;;;11.48;6.30;;;;;;;-8.00;48.25;97680.50;6323387;28;20127;-64
2022/03/11 11:52:56;;;;;;;9.70;4.78;;;;;;;-7.79;47.32;97667.28;6322635;28;20056;-65
2022/03/11 11:55:59;;;;;;;11.85;5.72;;;;;;;-8.10;47.42;97674.31;6320525;28;20121;-65
2022/03/11 11:59:09;;;;;;;5.53;3.53;;;;;;;-8.11;48.05;97671.75;6323787;28;20036;-64
2022/03/11 12:02:33;;;;;;;4.40;3.33;;;;;;;-8.29;48.25;97677.31;6322966;28;20074;-65
2022/03/11 12:05:42;;;;;;;12.50;6.15;;;;;;;-8.53;48.17;97663.22;6323203;28;20044;-65
2022/03/11 12:08:48;;;;;;;15.52;7.47;;;;;;;-8.74;48.54;97663.59;6322132;28;20467;-64
2022/03/11 12:11:52;;;;;;;17.52;7.10;;;;;;;-8.83;48.81;97664.25;6322196;28;20047;-64
2022/03/11 12:14:57;;;;;;;12.30;5.10;;;;;;;-8.76;48.88;97665.25;6323302;28;20044;-64
2022/03/11 12:18:02;;;;;;;12.00;5.22;;;;;;;-8.74;48.54;97667.84;6323231;28;20503;-67
2022/03/11 12:21:07;;;;;;;8.57;3.63;;;;;;;-8.90;48.39;97656.41;6322804;28;20534;-66
2022/03/11 12:24:39;;;;;;;5.70;2.90;;;;;;;-8.88;48.67;97664.97;6323225;28;20059;-65
2022/03/11 12:28:01;;;;;;;5.78;2.85;;;;;;;-9.08;48.78;97657.69;6321638;28;20048;-64
2022/03/11 12:31:19;;;;;;;7.68;4.45;;;;;;;-9.31;49.10;97663.91;6322961;28;20498;-65
2022/03/11 12:34:24;;;;;;;6.65;4.32;;;;;;;-9.29;49.09;97668.19;6322742;28;20044;-65
2022/03/11 12:37:28;;;;;;;9.18;5.03;;;;;;;-9.38;49.69;97659.47;6322647;28;20044;-64
2022/03/11 12:40:32;;;;;;;7.28;4.28;;;;;;;-9.34;49.31;97658.69;6322605;28;20052;-66
2022/03/11 12:43:37;;;;;;;9.32;4.95;;;;;;;-9.32;48.85;97667.25;6321894;28;20044;-66
2022/03/11 12:46:44;;;;;;;6.50;3.88;;;;;;;-9.52;49.34;97662.50;6322542;28;20044;-64
2022/03/11 12:49:58;;;;;;;6.47;3.17;;;;;;;-9.52;49.71;97659.09;6322326;28;20044;-66
2022/03/11 12:53:00;;;;;;;;;;;;;;;-9.33;49.32;97655.34;6322278;28;20055;-65
2022/03/11 12:56:01;;;;;;;7.68;4.43;;;;;;;-9.35;49.33;97651.88;6320479;28;19919;-64
2022/03/11 12:59:05;;;;;;;10.50;4.28;;;;;;;-9.29;49.13;97645.25;6322188;28;20598;-66
2022/03/11 13:02:16;;;;;;;8.45;3.78;;;;;;;-9.27;49.33;97630.00;6321789;28;20442;-64
2022/03/11 13:05:22;;;;;;;5.95;3.97;;;;;;;-9.33;49.24;97643.47;6321352;28;20052;-64
2022/03/11 13:08:24;;;;;;;12.35;5.25;;;;;;;-9.32;49.12;97639.22;6321261;28;20039;-63
2022/03/11 13:11:25;;;;;;;6.13;3.67;;;;;;;-9.51;48.98;97626.03;6321303;28;20040;-65
2022/03/11 13:14:28;;;;;;;10.82;6.20;;;;;;;-9.67;49.50;97626.44;6320053;28;20473;-64
2022/03/11 13:17:40;;;;;;;11.60;6.00;;;;;;;-9.84;49.35;97620.06;6321453;28;20052;-64
2022/03/11 13:20:54;;;;;;;7.82;5.57;;;;;;;-10.35;50.14;97615.28;6319390;28;20056;-65
2022/03/11 13:23:56;;;;;;;11.38;5.13;;;;;;;-10.58;50.82;97612.94;6321261;28;20507;-64
2022/03/11 13:27:07;;;;;;;6.15;3.75;;;;;;;-10.93;51.58;97617.78;6320421;28;20048;-64
2022/03/11 13:30:11;;;;;;;7.27;4.73;;;;;;;-11.00;51.55;97615.91;6321214;28;20040;-63
2022/03/11 13:33:20;;;;;;;7.25;4.75;;;;;;;-11.35;51.92;97615.66;6320654;28;20055;-63
2022/03/11 13:36:32;;;;;;;5.82;3.95;;;;;;;-11.52;52.60;97606.59;6321174;28;20400;-64
2022/03/11 13:39:38;;;;;;;8.30;3.97;;;;;;;-11.44;52.36;97599.22;6320798;28;20457;-64
2022/03/11 13:42:39;;;;;;;4.03;2.72;;;;;;;-11.66;52.71;97610.34;6320598;28;20047;-64
2022/03/11 13:45:41;;;;;;;6.03;3.47;;;;;;;-11.79;53.39;97589.66;6320603;28;20139;-63
2022/03/11 13:48:56;;;;;;;4.53;2.88;;;;;;;-11.96;53.63;97593.31;6320450;28;20527;-65
2022/03/11 13:52:03;;;;;;;6.10;3.50;;;;;;;-11.95;53.77;97600.13;6319826;28;20048;-63
2022/03/11 13:55:16;;;;;;;8.38;5.03;;;;;;;-12.24;54.20;97592.34;6320442;28;20052;-63
2022/03/11 13:58:27;;;;;;;5.90;3.45;;;;;;;-12.25;54.83;97580.50;6320552;28;20043;-64
2022/03/11 14:01:45;;;;;;;8.02;4.32;;;;;;;-12.36;55.02;97586.84;6320589;28;20426;-64
2022/03/11 14:05:29;;;;;;;3.13;2.90;;;;;;;-12.27;55.54;97587.19;6320223;28;20051;-64
2022/03/11 14:08:31;;;;;;;7.78;4.20;;;;;;;-12.48;55.01;97586.41;6312959;28;20134;-64
2022/03/11 14:11:38;;;;;;;3.67;2.58;;;;;;;-12.50;55.73;97572.81;6320504;28;20044;-65
2022/03/11 14:14:44;;;;;;;3.17;2.50;;;;;;;-12.45;55.67;97563.72;6320786;28;20580;-65
2022/03/11 14:17:51;;;;;;;8.20;3.80;;;;;;;-12.63;56.13;97575.72;6320082;28;20511;-64
2022/03/11 14:20:57;;;;;;;5.82;3.78;;;;;;;-12.77;56.64;97567.59;6318207;28;20453;-64
2022/03/11 14:24:01;;;;;;;4.68;2.45;;;;;;;-12.73;56.68;97579.59;6320548;28;20115;-65